Time;durP1;ratioP1;P1;durP2;ratioP2;P2;SDS_P1;SDS_P2;PMS_P1;PMS_P2;Temp;Humidity;BMP_temperature;BMP_pressure;BME280_temperature;BME280_humidity;BME280_pressure;Samples;Min_cycle;Max_cycle;Signal;HPM_P1;HPM_P2
2022/06/29 00:00:17;;;;;;;3.03;2.93;;;19.70;1.00;;;;;;6331155;28;20228;-54
2022/06/29 00:03:21;;;;;;;2.83;2.83;;;19.70;1.00;;;;;;6333232;28;20752;-57
2022/06/29 00:06:24;;;;;;;2.70;2.60;;;19.60;1.00;;;;;;6331933;28;20277;-56
2022/06/29 00:09:27;;;;;;;3.00;2.90;;;19.70;1.00;;;;;;6332228;28;20361;-55
2022/06/29 00:12:31;;;;;;;2.77;2.70;;;19.60;1.00;;;;;;6334825;28;20308;-56
2022/06/29 00:15:34;;;;;;;3.10;2.80;;;19.60;1.00;;;;;;6318889;28;20268;-56
2022/06/29 00:18:38;;;;;;;3.00;2.80;;;19.60;1.00;;;;;;6333713;28;20389;-55
2022/06/29 00:21:41;;;;;;;3.10;2.90;;;19.50;1.00;;;;;;6326770;28;20271;-55
2022/06/29 00:24:44;;;;;;;2.60;2.50;;;19.50;1.00;;;;;;6326847;28;20373;-55
2022/06/29 00:27:47;;;;;;;3.00;2.87;;;19.50;1.00;;;;;;6334058;28;20326;-56
2022/06/29 00:30:50;;;;;;;2.90;2.80;;;19.40;1.00;;;;;;6328308;28;20455;-55
2022/06/29 00:33:56;;;;;;;2.80;2.70;;;19.40;1.00;;;;;;6329698;28;20256;-55
2022/06/29 00:36:59;;;;;;;3.10;3.00;;;19.40;1.00;;;;;;6318404;28;20242;-56
2022/06/29 00:40:03;;;;;;;2.83;2.73;;;19.40;1.00;;;;;;6332562;28;20271;-55
2022/06/29 00:43:12;;;;;;;2.60;2.60;;;19.30;1.00;;;;;;6330694;28;20232;-55
2022/06/29 00:46:15;;;;;;;3.53;3.37;;;19.30;1.00;;;;;;6334141;28;20707;-55
2022/06/29 00:49:21;;;;;;;3.07;2.87;;;19.30;1.00;;;;;;6324508;28;20260;-54
2022/06/29 00:52:26;;;;;;;3.60;3.40;;;19.20;1.00;;;;;;6324780;28;20256;-54
2022/06/29 00:55:31;;;;;;;3.83;2.93;;;19.20;1.00;;;;;;6333310;28;20248;-56
2022/06/29 00:58:34;;;;;;;3.33;3.07;;;19.20;1.00;;;;;;6325091;28;20719;-55
2022/06/29 01:01:39;;;;;;;2.80;2.80;;;19.10;1.00;;;;;;6317797;28;20822;-55
2022/06/29 01:04:45;;;;;;;3.43;3.20;;;19.10;1.00;;;;;;6324458;28;20232;-55
2022/06/29 01:07:48;;;;;;;3.23;3.13;;;19.10;1.00;;;;;;6329976;28;20385;-56
2022/06/29 01:10:51;;;;;;;2.77;2.73;;;19.10;1.00;;;;;;6321323;28;20236;-55
2022/06/29 01:13:54;;;;;;;4.87;3.17;;;19.10;1.00;;;;;;6333450;28;20312;-56
2022/06/29 01:16:57;;;;;;;2.80;2.80;;;19.10;1.00;;;;;;6331874;28;20883;-52
2022/06/29 01:20:01;;;;;;;3.10;3.00;;;19.00;1.00;;;;;;6325635;28;20426;-54
2022/06/29 01:23:14;;;;;;;2.80;2.67;;;19.00;1.00;;;;;;6326473;28;20389;-55
2022/06/29 01:26:19;;;;;;;3.40;3.20;;;18.90;1.00;;;;;;6318273;28;20319;-55
2022/06/29 01:29:25;;;;;;;2.90;2.87;;;18.90;1.00;;;;;;6323261;28;20610;-56
2022/06/29 01:32:28;;;;;;;2.93;2.83;;;18.90;1.00;;;;;;6319943;28;20694;-56
2022/06/29 01:35:31;;;;;;;3.27;3.20;;;18.90;1.00;;;;;;6332041;28;20524;-56
2022/06/29 01:38:38;;;;;;;3.10;2.90;;;18.90;1.00;;;;;;6319905;28;20319;-56
2022/06/29 01:41:41;;;;;;;2.97;2.87;;;18.90;1.00;;;;;;6329612;28;20315;-56
2022/06/29 01:44:43;;;;;;;3.20;3.10;;;18.80;1.00;;;;;;6329845;28;20804;-55
2022/06/29 01:47:46;;;;;;;3.23;3.13;;;18.80;1.00;;;;;;6331919;28;20238;-56
2022/06/29 01:50:50;;;;;;;3.10;3.00;;;18.80;1.00;;;;;;6328476;28;20260;-55
2022/06/29 01:53:54;;;;;;;3.20;3.00;;;18.80;1.00;;;;;;6329719;28;20239;-55
2022/06/29 01:56:57;;;;;;;2.90;2.70;;;18.80;1.00;;;;;;6331592;28;20326;-56
2022/06/29 02:00:00;;;;;;;3.03;2.83;;;18.80;1.00;;;;;;6326935;28;20772;-56
2022/06/29 02:03:08;;;;;;;3.00;2.80;;;18.70;1.00;;;;;;6326763;28;20251;-56
2022/06/29 02:06:11;;;;;;;3.30;3.20;;;18.70;1.00;;;;;;6330623;28;20247;-57
2022/06/29 02:09:16;;;;;;;2.93;2.93;;;18.70;1.00;;;;;;6326688;28;20376;-56
2022/06/29 02:12:19;;;;;;;3.00;2.90;;;18.60;1.00;;;;;;6317379;28;20302;-55
2022/06/29 02:15:23;;;;;;;3.10;3.00;;;18.60;1.00;;;;;;6316498;28;20251;-55
2022/06/29 02:18:26;;;;;;;2.77;2.73;;;18.60;1.00;;;;;;6330616;28;20228;-55
2022/06/29 02:21:29;;;;;;;3.10;3.07;;;18.50;1.00;;;;;;6323692;28;20239;-56
2022/06/29 02:24:35;;;;;;;3.00;2.90;;;18.60;1.00;;;;;;6321897;28;20240;-55
2022/06/29 02:27:40;;;;;;;3.60;3.40;;;18.50;1.00;;;;;;6285717;28;1053991;-55
2022/06/29 02:37:23;;;;;;;2.90;2.90;;;18.50;1.00;;;;;;6328505;28;20240;-56
2022/06/29 02:40:28;;;;;;;3.07;3.07;;;18.50;1.00;;;;;;6321668;28;20228;-55
2022/06/29 02:43:32;;;;;;;3.30;3.20;;;18.40;1.00;;;;;;6323280;28;20232;-55
2022/06/29 02:46:35;;;;;;;3.40;3.20;;;18.40;1.00;;;;;;6323210;28;20390;-56
2022/06/29 02:49:38;;;;;;;3.70;3.00;;;18.40;1.00;;;;;;6324759;28;20717;-55
2022/06/29 02:52:41;;;;;;;3.47;3.40;;;18.40;1.00;;;;;;6320628;28;20246;-55
2022/06/29 02:55:45;;;;;;;3.23;3.00;;;18.30;1.00;;;;;;6317005;28;20368;-57
2022/06/29 02:58:48;;;;;;;3.60;3.30;;;18.30;1.00;;;;;;6330777;28;20984;-54
2022/06/29 03:01:51;;;;;;;3.50;3.40;;;18.20;1.00;;;;;;6324709;28;20228;-57
2022/06/29 03:04:53;;;;;;;3.30;3.00;;;18.20;1.00;;;;;;6327821;28;20407;-56
2022/06/29 03:07:58;;;;;;;3.13;3.13;;;18.20;1.00;;;;;;6323229;28;20743;-56
2022/06/29 03:11:03;;;;;;;3.40;3.30;;;18.20;1.00;;;;;;6325629;28;20232;-55
2022/06/29 03:14:06;;;;;;;3.30;3.00;;;18.20;1.00;;;;;;6331958;28;20228;-56
2022/06/29 03:17:12;;;;;;;3.50;3.40;;;18.20;1.00;;;;;;6333143;28;20439;-56
2022/06/29 03:20:15;;;;;;;3.47;3.37;;;18.20;1.00;;;;;;6333540;28;20614;-56
2022/06/29 03:23:18;;;;;;;3.77;3.47;;;18.20;1.00;;;;;;6321706;28;20273;-55
2022/06/29 03:26:22;;;;;;;3.43;3.43;;;18.20;1.00;;;;;;6335879;28;20239;-56
2022/06/29 03:29:30;;;;;;;3.37;3.17;;;18.20;1.00;;;;;;6334167;28;20235;-55
2022/06/29 03:32:34;;;;;;;2.77;2.77;;;18.20;1.00;;;;;;6301977;27;20288;-56
2022/06/29 03:35:44;;;;;;;3.57;3.37;;;18.20;1.00;;;;;;6330461;28;20296;-55
2022/06/29 03:38:48;;;;;;;3.00;2.80;;;18.30;1.00;;;;;;6320296;28;20248;-56
2022/06/29 03:41:52;;;;;;;3.20;3.00;;;18.20;1.00;;;;;;6336771;27;20719;-55
2022/06/29 03:44:55;;;;;;;3.43;3.23;;;18.30;1.00;;;;;;6335092;28;20254;-56
2022/06/29 03:47:58;;;;;;;2.93;2.83;;;18.30;1.00;;;;;;6324750;27;20599;-55
2022/06/29 03:51:01;;;;;;;2.77;2.67;;;18.30;1.00;;;;;;6322753;28;20513;-56
2022/06/29 03:54:04;;;;;;;3.80;3.27;;;18.30;1.00;;;;;;6331690;28;20239;-57
2022/06/29 03:57:08;;;;;;;3.30;3.20;;;18.30;1.00;;;;;;6333200;28;20304;-56
2022/06/29 04:00:12;;;;;;;3.07;3.07;;;18.40;1.00;;;;;;6320581;28;20318;-56
2022/06/29 04:03:15;;;;;;;3.20;3.00;;;18.50;1.00;;;;;;6331126;28;20314;-55
2022/06/29 04:06:18;;;;;;;3.23;3.00;;;18.50;1.00;;;;;;6324964;28;20331;-54
2022/06/29 04:09:21;;;;;;;2.93;2.83;;;18.50;1.00;;;;;;6330870;28;20236;-56
2022/06/29 04:12:25;;;;;;;3.00;2.90;;;18.60;1.00;;;;;;6333090;28;20430;-55
2022/06/29 04:15:28;;;;;;;3.17;2.97;;;18.60;1.00;;;;;;6331263;28;20236;-56
2022/06/29 04:18:31;;;;;;;3.77;3.40;;;18.70;1.00;;;;;;6304727;28;20556;-54
2022/06/29 04:21:34;;;;;;;3.33;3.00;;;18.70;1.00;;;;;;6319017;28;20236;-54
2022/06/29 04:24:45;;;;;;;3.40;3.20;;;18.80;1.00;;;;;;6311096;28;20243;-55
2022/06/29 04:27:49;;;;;;;3.30;3.20;;;18.90;1.00;;;;;;6323741;28;20893;-56
2022/06/29 04:30:53;;;;;;;3.10;3.00;;;19.00;1.00;;;;;;6325733;28;20354;-57
2022/06/29 04:33:56;;;;;;;3.50;3.30;;;19.10;1.00;;;;;;6324423;28;20251;-54
2022/06/29 04:36:59;;;;;;;5.23;3.27;;;19.20;1.00;;;;;;6324035;28;20240;-54
2022/06/29 04:40:03;;;;;;;3.43;3.33;;;19.30;1.00;;;;;;6321769;28;20614;-61
2022/06/29 04:43:07;;;;;;;3.37;3.27;;;19.30;1.00;;;;;;6317907;28;20225;-55
2022/06/29 04:46:22;;;;;;;4.10;3.40;;;19.50;1.00;;;;;;6316079;28;20619;-55
2022/06/29 04:49:26;;;;;;;3.40;3.20;;;19.60;1.00;;;;;;6320958;28;20224;-55
2022/06/29 04:52:29;;;;;;;3.57;3.27;;;19.70;1.00;;;;;;6322260;28;20244;-55
2022/06/29 04:55:32;;;;;;;3.73;3.47;;;19.80;1.00;;;;;;6313480;28;20758;-56
2022/06/29 04:58:36;;;;;;;3.80;3.47;;;19.90;1.00;;;;;;6321369;28;20232;-55
2022/06/29 05:01:39;;;;;;;3.23;3.10;;;20.10;1.00;;;;;;6317555;27;20246;-56
2022/06/29 05:04:42;;;;;;;3.00;2.80;;;20.20;1.00;;;;;;6327341;28;20372;-55
2022/06/29 05:07:44;;;;;;;3.27;3.17;;;20.50;1.00;;;;;;6323944;27;20742;-55
2022/06/29 05:10:47;;;;;;;4.20;2.90;;;20.70;1.00;;;;;;6319108;28;20319;-54
2022/06/29 05:13:58;;;;;;;3.33;3.13;;;21.00;1.00;;;;;;6325163;28;20249;-55
2022/06/29 05:17:00;;;;;;;3.70;3.00;;;21.30;1.00;;;;;;6312983;28;20348;-55
2022/06/29 05:20:04;;;;;;;3.20;3.00;;;21.60;1.00;;;;;;6315260;27;20771;-56
2022/06/29 05:23:08;;;;;;;2.90;2.80;;;21.90;1.00;;;;;;6316391;28;20240;-55
2022/06/29 05:26:11;;;;;;;3.33;3.07;;;22.10;1.00;;;;;;6318284;28;20863;-56
2022/06/29 05:29:17;;;;;;;3.10;2.90;;;22.50;1.00;;;;;;6313596;28;20251;-56
2022/06/29 05:32:20;;;;;;;3.63;2.80;;;22.70;1.00;;;;;;6316887;28;20232;-57
2022/06/29 05:35:23;;;;;;;2.80;2.70;;;22.90;1.00;;;;;;6316744;28;20299;-54
2022/06/29 05:38:26;;;;;;;3.90;2.70;;;23.10;1.00;;;;;;6323308;28;20671;-54
2022/06/29 05:41:29;;;;;;;3.60;2.63;;;23.30;1.00;;;;;;6323747;28;20364;-55
2022/06/29 05:44:33;;;;;;;3.73;2.93;;;23.30;1.00;;;;;;6301435;28;20283;-54
2022/06/29 05:47:36;;;;;;;3.03;2.90;;;23.40;1.00;;;;;;6310633;28;20712;-54
2022/06/29 05:50:39;;;;;;;2.90;2.70;;;23.30;1.00;;;;;;6313776;28;20547;-54
2022/06/29 05:53:44;;;;;;;3.43;3.20;;;23.50;1.00;;;;;;6317280;28;20220;-54
2022/06/29 05:56:47;;;;;;;3.67;2.60;;;23.70;1.00;;;;;;6325572;28;20251;-57
2022/06/29 05:59:51;;;;;;;2.70;2.50;;;23.80;1.00;;;;;;6318164;28;20752;-60
2022/06/29 06:02:54;;;;;;;3.27;3.07;;;23.80;1.00;;;;;;6307915;28;20243;-54
2022/06/29 06:05:57;;;;;;;2.87;2.83;;;23.80;1.00;;;;;;6325645;28;20244;-56
2022/06/29 06:09:00;;;;;;;3.10;2.80;;;23.80;1.00;;;;;;6319624;28;20235;-55
2022/06/29 06:12:04;;;;;;;2.93;2.77;;;23.90;1.00;;;;;;6313010;28;20224;-54
2022/06/29 06:15:09;;;;;;;3.17;2.83;;;24.00;1.00;;;;;;6326704;28;20308;-56
2022/06/29 06:18:12;;;;;;;3.27;2.57;;;24.20;1.00;;;;;;6316543;28;20767;-56
2022/06/29 06:21:16;;;;;;;2.80;2.70;;;24.10;1.00;;;;;;6326566;28;20289;-56
2022/06/29 06:24:18;;;;;;;2.83;2.60;;;24.30;1.00;;;;;;6315891;28;20793;-59
2022/06/29 06:27:23;;;;;;;2.70;2.70;;;24.60;1.00;;;;;;6315059;28;20263;-56
2022/06/29 06:30:27;;;;;;;2.90;2.80;;;24.90;1.00;;;;;;6324386;28;20285;-55
2022/06/29 06:33:31;;;;;;;4.20;2.60;;;25.10;1.00;;;;;;6314925;28;20378;-55
2022/06/29 06:36:35;;;;;;;2.63;2.53;;;25.10;1.00;;;;;;6320686;28;20252;-58
2022/06/29 06:41:21;;;;;;;3.07;2.93;;;25.10;1.00;;;;;;6320797;28;20371;-55
2022/06/29 06:43:02;;;;;;;2.90;2.70;;;25.00;1.00;;;;;;6316783;28;20301;-56
2022/06/29 06:46:06;;;;;;;2.47;2.37;;;24.90;1.00;;;;;;6311592;28;20298;-55
2022/06/29 06:49:09;;;;;;;2.37;2.37;;;24.90;1.00;;;;;;6305201;28;20228;-55
2022/06/29 06:52:13;;;;;;;2.73;2.53;;;24.90;1.00;;;;;;6317218;28;20770;-55
2022/06/29 06:55:16;;;;;;;2.70;2.50;;;25.00;1.00;;;;;;6323614;28;20253;-56
2022/06/29 06:58:19;;;;;;;2.73;2.53;;;24.90;1.00;;;;;;6328928;28;20316;-55
2022/06/29 07:01:24;;;;;;;5.80;3.00;;;24.80;1.00;;;;;;6324762;28;20227;-53
2022/06/29 07:04:27;;;;;;;2.30;2.20;;;24.60;1.00;;;;;;6317358;28;20768;-54
2022/06/29 07:07:30;;;;;;;2.73;2.53;;;24.60;1.00;;;;;;6321766;28;20232;-55
2022/06/29 07:10:33;;;;;;;3.43;2.70;;;24.60;1.00;;;;;;6321364;28;20728;-54
2022/06/29 07:13:36;;;;;;;4.03;3.13;;;24.60;1.00;;;;;;6306545;27;20717;-54
2022/06/29 07:16:40;;;;;;;4.30;2.60;;;24.70;1.00;;;;;;6303505;28;20684;-54
2022/06/29 07:19:43;;;;;;;3.97;2.70;;;24.90;1.00;;;;;;6324184;28;20235;-54
2022/06/29 07:22:50;;;;;;;3.00;2.90;;;24.60;1.00;;;;;;6316976;28;20225;-55
2022/06/29 07:25:57;;;;;;;2.43;2.37;;;24.50;1.00;;;;;;6326075;28;21523;-55
2022/06/29 07:29:00;;;;;;;2.57;2.43;;;24.40;1.00;;;;;;6322368;28;20374;-57
2022/06/29 07:32:05;;;;;;;4.37;2.50;;;24.30;1.00;;;;;;6331033;28;20319;-55
2022/06/29 07:35:08;;;;;;;2.33;2.23;;;24.30;1.00;;;;;;6330030;28;20240;-54
2022/06/29 07:38:11;;;;;;;2.50;2.33;;;24.40;1.00;;;;;;6315378;28;20274;-55
2022/06/29 07:41:14;;;;;;;2.47;2.33;;;24.30;1.00;;;;;;6325913;28;20771;-54
2022/06/29 07:44:17;;;;;;;2.33;2.23;;;24.30;1.00;;;;;;6325041;28;20235;-55
2022/06/29 07:47:22;;;;;;;2.50;2.30;;;24.40;1.00;;;;;;6328475;28;20236;-56
2022/06/29 07:50:25;;;;;;;2.30;2.20;;;24.40;1.00;;;;;;6314631;28;20332;-55
2022/06/29 07:53:31;;;;;;;1.80;1.80;;;24.40;1.00;;;;;;6326739;28;20313;-55
2022/06/29 07:56:36;;;;;;;5.40;2.43;;;24.50;1.00;;;;;;6322453;28;20433;-55
2022/06/29 07:59:49;;;;;;;2.10;2.00;;;24.80;1.00;;;;;;6320028;28;20225;-54
2022/06/29 08:02:54;;;;;;;2.87;2.13;;;25.00;1.00;;;;;;6319251;28;20593;-55
2022/06/29 08:05:57;;;;;;;2.10;2.10;;;24.80;1.00;;;;;;6326956;28;20240;-56
2022/06/29 08:09:02;;;;;;;2.87;2.40;;;24.80;1.00;;;;;;6321128;28;20228;-54
2022/06/29 08:12:06;;;;;;;2.23;2.00;;;24.90;1.00;;;;;;6327771;28;20335;-54
2022/06/29 08:15:17;;;;;;;2.03;1.83;;;24.90;1.00;;;;;;6329022;28;20582;-55
2022/06/29 08:18:23;;;;;;;4.90;1.97;;;25.20;1.00;;;;;;6313300;28;20701;-55
2022/06/29 08:21:26;;;;;;;2.20;2.00;;;25.50;1.00;;;;;;6314156;28;20240;-54
2022/06/29 08:24:32;;;;;;;2.27;2.17;;;25.60;1.00;;;;;;6321733;28;20276;-55
2022/06/29 08:27:52;;;;;;;2.10;2.00;;;25.90;1.00;;;;;;6302486;28;20289;-54
2022/06/29 08:31:00;;;;;;;1.87;1.87;;;26.00;1.00;;;;;;6314346;28;20260;-54
2022/06/29 08:34:05;;;;;;;2.57;2.37;;;26.00;1.00;;;;;;6317979;28;20312;-53
2022/06/29 08:37:09;;;;;;;3.57;2.00;;;26.10;1.00;;;;;;6324096;28;20318;-53
2022/06/29 08:40:14;;;;;;;2.17;2.07;;;26.10;1.00;;;;;;6315831;28;20367;-55
2022/06/29 08:43:22;;;;;;;2.07;1.97;;;26.00;1.00;;;;;;6321239;28;20306;-54
2022/06/29 08:46:25;;;;;;;2.03;2.03;;;25.80;1.00;;;;;;6315661;28;20237;-55
2022/06/29 08:49:29;;;;;;;4.33;2.00;;;25.80;1.00;;;;;;6322761;28;20240;-55
2022/06/29 08:52:35;;;;;;;2.53;1.90;;;25.60;1.00;;;;;;6319646;28;20266;-54
2022/06/29 08:55:42;;;;;;;2.00;1.90;;;25.60;1.00;;;;;;6310888;28;20256;-54
2022/06/29 08:58:46;;;;;;;1.80;1.70;;;25.80;1.00;;;;;;6313689;28;20636;-54
2022/06/29 09:01:49;;;;;;;2.30;2.10;;;25.90;1.00;;;;;;6320455;28;20312;-54
2022/06/29 09:04:54;;;;;;;3.13;1.87;;;26.00;1.00;;;;;;6317818;28;20243;-54
2022/06/29 09:07:57;;;;;;;2.37;2.30;;;26.10;1.00;;;;;;6321547;28;20409;-54
2022/06/29 09:11:21;;;;;;;2.17;2.07;;;26.10;1.00;;;;;;6318372;28;20384;-54
2022/06/29 09:14:25;;;;;;;2.20;2.00;;;26.40;1.00;;;;;;6317101;28;20683;-54
2022/06/29 09:17:31;;;;;;;1.80;1.80;;;26.60;1.00;;;;;;6312378;28;20296;-55
2022/06/29 09:20:54;;;;;;;2.13;2.03;;;26.70;1.00;;;;;;6313904;28;20405;-55
2022/06/29 09:23:58;;;;;;;2.40;2.17;;;26.70;1.00;;;;;;6315279;28;20843;-55
2022/06/29 09:27:13;;;;;;;2.20;2.13;;;26.70;1.00;;;;;;6329649;28;20259;-55
2022/06/29 09:30:27;;;;;;;1.77;1.70;;;26.70;1.00;;;;;;6314322;28;20228;-51
2022/06/29 09:33:31;;;;;;;2.00;1.87;;;26.70;1.00;;;;;;6320414;28;20382;-54
2022/06/29 09:36:54;;;;;;;1.97;1.80;;;26.60;1.00;;;;;;6319178;28;20972;-54
2022/06/29 09:39:58;;;;;;;2.73;2.20;;;26.60;1.00;;;;;;6320106;28;20319;-54
2022/06/29 09:43:01;;;;;;;1.90;1.80;;;26.60;1.00;;;;;;6314181;28;20356;-54
2022/06/29 09:46:05;;;;;;;2.30;2.10;;;26.40;1.00;;;;;;6321285;28;20316;-54
2022/06/29 09:49:08;;;;;;;3.10;2.00;;;26.60;1.00;;;;;;6317231;28;20242;-55
2022/06/29 09:52:13;;;;;;;1.77;1.77;;;26.70;1.00;;;;;;6321557;28;20323;-54
2022/06/29 09:55:16;;;;;;;1.87;1.87;;;26.70;1.00;;;;;;6320015;28;20366;-54
2022/06/29 09:58:23;;;;;;;2.67;2.20;;;26.50;1.00;;;;;;6319727;28;20337;-54
2022/06/29 10:04:48;;;;;;;2.30;2.20;;;26.40;1.00;;;;;;6312378;28;20235;-55
2022/06/29 10:07:54;;;;;;;1.83;1.83;;;26.30;1.00;;;;;;6313245;28;20474;-54
2022/06/29 10:13:39;;;;;;;2.27;2.03;;;26.00;1.00;;;;;;6316777;28;20325;-55
2022/06/29 10:14:45;;;;;;;2.30;2.00;;;26.00;1.00;;;;;;6324967;28;20255;-54
2022/06/29 10:17:55;;;;;;;2.60;2.17;;;25.90;1.00;;;;;;6307084;28;20350;-54
2022/06/29 10:20:59;;;;;;;2.37;2.27;;;25.80;1.00;;;;;;6310116;28;20703;-55
2022/06/29 10:24:06;;;;;;;2.07;2.03;;;25.90;1.00;;;;;;6317151;28;20319;-54
2022/06/29 10:27:11;;;;;;;2.30;2.20;;;26.00;1.00;;;;;;6313846;28;20250;-55
2022/06/29 10:30:23;;;;;;;2.13;2.03;;;25.80;1.00;;;;;;6321537;28;20281;-54
2022/06/29 10:33:35;;;;;;;2.37;2.13;;;25.80;1.00;;;;;;6293365;28;20224;-53
2022/06/29 10:36:59;;;;;;;2.47;2.27;;;25.80;1.00;;;;;;6326948;28;20236;-54
2022/06/29 10:40:15;;;;;;;2.30;2.20;;;25.80;1.00;;;;;;6324685;28;20507;-53
2022/06/29 10:43:20;;;;;;;2.20;2.20;;;25.80;1.00;;;;;;6329897;28;20332;-55
2022/06/29 10:46:24;;;;;;;2.33;2.23;;;25.70;1.00;;;;;;6324740;28;20451;-55
2022/06/29 10:49:32;;;;;;;2.60;2.50;;;25.70;1.00;;;;;;6321279;28;20323;-55
2022/06/29 10:52:38;;;;;;;3.37;2.20;;;25.60;1.00;;;;;;6317604;28;20232;-55
2022/06/29 10:55:43;;;;;;;2.20;2.10;;;25.60;1.00;;;;;;6322312;28;20324;-53
2022/06/29 10:58:49;;;;;;;2.83;2.10;;;25.70;1.00;;;;;;6322919;28;20236;-54
2022/06/29 11:02:08;;;;;;;2.60;2.43;;;25.80;1.00;;;;;;6327793;27;20363;-54
2022/06/29 11:05:11;;;;;;;2.73;2.53;;;25.90;1.00;;;;;;6333492;28;20285;-55
2022/06/29 11:18:28;;;;;;;3.53;2.03;;;26.70;1.00;;;;;;6316500;28;20319;-54
2022/06/29 11:21:35;;;;;;;2.63;2.53;;;26.70;1.00;;;;;;6316322;28;20266;-53
2022/06/29 11:24:51;;;;;;;3.23;2.20;;;26.60;1.00;;;;;;6323976;28;20317;-54
2022/06/29 11:27:57;;;;;;;2.27;2.07;;;26.70;1.00;;;;;;6328797;28;20264;-54
2022/06/29 11:31:02;;;;;;;1.87;1.87;;;26.70;1.00;;;;;;6322670;28;20723;-55
2022/06/29 11:34:06;;;;;;;2.83;1.90;;;26.80;1.00;;;;;;6322352;28;20905;-54
2022/06/29 11:37:08;;;;;;;3.93;1.80;;;27.00;1.00;;;;;;6294684;28;20941;-54
2022/06/29 11:40:12;;;;;;;2.10;2.10;;;27.00;1.00;;;;;;6282735;28;20233;-52
2022/06/29 11:43:19;;;;;;;2.17;2.10;;;26.90;1.00;;;;;;6318477;27;20233;-54
2022/06/29 11:46:25;;;;;;;3.10;2.87;;;26.80;1.00;;;;;;6320784;28;20724;-54
2022/06/29 11:49:39;;;;;;;2.73;2.40;;;26.60;1.00;;;;;;6316728;28;20780;-54
2022/06/29 11:52:47;;;;;;;2.87;2.13;;;26.50;1.00;;;;;;6324516;28;20822;-56
2022/06/29 11:55:54;;;;;;;2.27;2.10;;;26.60;1.00;;;;;;6318912;28;20314;-56
2022/06/29 11:59:03;;;;;;;2.57;1.90;;;26.50;1.00;;;;;;6313671;28;20602;-55
2022/06/29 12:02:15;;;;;;;1.93;1.83;;;26.70;1.00;;;;;;6329634;28;20280;-56
2022/06/29 12:05:18;;;;;;;1.50;1.50;;;26.70;1.00;;;;;;6325325;28;20905;-53
2022/06/29 12:08:21;;;;;;;1.97;1.97;;;26.60;1.00;;;;;;6318750;28;20486;-54
2022/06/29 12:11:25;;;;;;;1.77;1.70;;;26.80;1.00;;;;;;6320397;28;20320;-55
2022/06/29 12:14:29;;;;;;;2.43;2.07;;;26.90;1.00;;;;;;6308607;28;20635;-55
2022/06/29 12:17:32;;;;;;;2.23;2.13;;;27.10;1.00;;;;;;6318499;28;20232;-53
2022/06/29 12:20:35;;;;;;;1.77;1.67;;;27.30;1.00;;;;;;6319505;28;20289;-55
2022/06/29 12:23:41;;;;;;;2.20;1.80;;;27.40;1.00;;;;;;6310591;28;20239;-56
2022/06/29 12:26:44;;;;;;;3.90;2.10;;;27.50;1.00;;;;;;6319378;28;20323;-55
2022/06/29 12:29:48;;;;;;;1.63;1.53;;;27.30;1.00;;;;;;6321332;27;20280;-54
2022/06/29 12:32:51;;;;;;;2.67;1.37;;;27.30;1.00;;;;;;6326850;27;20253;-54
2022/06/29 12:35:54;;;;;;;2.10;2.00;;;27.60;1.00;;;;;;6326430;27;20493;-54
2022/06/29 12:38:57;;;;;;;2.57;1.73;;;27.70;1.00;;;;;;6324096;28;20632;-54
2022/06/29 12:42:06;;;;;;;5.10;1.90;;;27.60;1.00;;;;;;6319364;28;20293;-55
2022/06/29 12:45:11;;;;;;;1.83;1.83;;;27.50;1.00;;;;;;6328251;27;20266;-55
2022/06/29 12:48:19;;;;;;;2.23;2.13;;;27.40;1.00;;;;;;6318819;28;20236;-53
2022/06/29 12:51:22;;;;;;;2.30;2.20;;;27.40;1.00;;;;;;6320007;28;20818;-54
2022/06/29 12:54:25;;;;;;;4.43;2.20;;;27.50;1.00;;;;;;6333712;27;20239;-54
2022/06/29 12:57:29;;;;;;;2.00;1.90;;;27.70;1.00;;;;;;6325145;27;20235;-54
2022/06/29 13:00:33;;;;;;;2.70;2.00;;;27.80;1.00;;;;;;6321513;27;20796;-55
2022/06/29 13:03:37;;;;;;;1.70;1.70;;;27.70;1.00;;;;;;6320975;28;20719;-53
2022/06/29 13:06:40;;;;;;;3.27;2.13;;;27.80;1.00;;;;;;6323990;27;20238;-54
2022/06/29 13:09:46;;;;;;;2.87;2.17;;;28.00;1.00;;;;;;6331502;27;20228;-56
2022/06/29 13:12:49;;;;;;;2.40;2.20;;;27.70;1.00;;;;;;6333971;27;20326;-54
2022/06/29 13:15:53;;;;;;;2.37;2.27;;;27.60;1.00;;;;;;6326547;27;20320;-54
2022/06/29 13:18:56;;;;;;;2.63;2.40;;;27.80;1.00;;;;;;6340465;27;20458;-54
2022/06/29 13:22:00;;;;;;;3.20;2.20;;;27.80;1.00;;;;;;6322101;27;20223;-54
2022/06/29 13:25:08;;;;;;;1.83;1.83;;;27.80;1.00;;;;;;6327631;27;20228;-54
2022/06/29 13:28:11;;;;;;;1.90;1.90;;;27.80;1.00;;;;;;6328802;27;20237;-54
2022/06/29 13:31:17;;;;;;;2.10;2.00;;;27.90;1.00;;;;;;6323904;27;20825;-54
2022/06/29 13:34:20;;;;;;;2.40;1.93;;;27.70;1.00;;;;;;6320959;27;20231;-54
2022/06/29 13:37:23;;;;;;;2.10;2.10;;;27.80;1.00;;;;;;6331681;27;20615;-54
2022/06/29 13:40:27;;;;;;;3.80;2.00;;;27.60;1.00;;;;;;6329096;27;20832;-54
2022/06/29 13:43:30;;;;;;;1.60;1.60;;;27.40;1.00;;;;;;6336201;27;20450;-54
2022/06/29 13:46:34;;;;;;;3.43;1.87;;;27.20;1.00;;;;;;6343453;27;20307;-56
2022/06/29 13:49:37;;;;;;;1.93;1.83;;;27.20;1.00;;;;;;6334474;27;20326;-54
2022/06/29 13:52:40;;;;;;;2.37;1.73;;;26.90;1.00;;;;;;6323841;28;20354;-54
2022/06/29 13:55:43;;;;;;;1.83;1.80;;;26.70;1.00;;;;;;6329633;28;20280;-54
2022/06/29 13:58:52;;;;;;;2.10;1.90;;;26.80;1.00;;;;;;6333550;28;20709;-54
2022/06/29 14:01:58;;;;;;;1.73;1.63;;;27.00;1.00;;;;;;6330649;27;20360;-53
2022/06/29 14:05:07;;;;;;;2.03;1.87;;;27.20;1.00;;;;;;6335732;27;20607;-54
2022/06/29 14:08:10;;;;;;;3.67;1.80;;;27.20;1.00;;;;;;6325647;28;20353;-55
2022/06/29 14:11:34;;;;;;;1.30;1.30;;;27.20;1.00;;;;;;6323729;28;20238;-54
2022/06/29 14:14:36;;;;;;;3.93;1.70;;;27.00;1.00;;;;;;6326176;28;20296;-54
2022/06/29 14:17:41;;;;;;;2.07;1.90;;;27.10;1.00;;;;;;6341361;28;20279;-54
2022/06/29 14:20:45;;;;;;;2.60;1.80;;;27.00;1.00;;;;;;6322862;28;20321;-54
2022/06/29 14:23:50;;;;;;;2.03;1.73;;;27.00;1.00;;;;;;6326137;28;20299;-55
2022/06/29 14:26:53;;;;;;;1.67;1.67;;;27.00;1.00;;;;;;6336129;28;20707;-54
2022/06/29 14:29:56;;;;;;;2.07;1.97;;;27.10;1.00;;;;;;6322771;28;20251;-55
2022/06/29 14:33:03;;;;;;;2.03;1.93;;;27.10;1.00;;;;;;6332661;28;20224;-55
2022/06/29 14:36:06;;;;;;;2.03;2.00;;;27.20;1.00;;;;;;6335022;28;20471;-55
2022/06/29 14:39:09;;;;;;;3.73;1.80;;;27.20;1.00;;;;;;6307626;28;20232;-54
2022/06/29 14:42:12;;;;;;;1.73;1.50;;;27.10;1.00;;;;;;6327580;28;20235;-54
2022/06/29 14:45:16;;;;;;;1.63;1.63;;;27.00;1.00;;;;;;6333298;28;20266;-54
2022/06/29 14:48:20;;;;;;;1.70;1.60;;;26.90;1.00;;;;;;6326025;28;20484;-54
2022/06/29 14:51:23;;;;;;;2.27;2.17;;;26.80;1.00;;;;;;6338692;28;20235;-56
2022/06/29 14:54:26;;;;;;;2.00;1.90;;;26.70;1.00;;;;;;6323950;28;20240;-55
2022/06/29 14:57:29;;;;;;;1.80;1.80;;;26.60;1.00;;;;;;6331435;28;20303;-54
2022/06/29 15:00:32;;;;;;;1.80;1.80;;;26.70;1.00;;;;;;6326768;28;20740;-51
2022/06/29 15:03:37;;;;;;;2.10;2.00;;;26.70;1.00;;;;;;6331194;28;20434;-53
2022/06/29 15:06:42;;;;;;;2.00;2.00;;;26.70;1.00;;;;;;6328472;28;20350;-54
2022/06/29 15:09:45;;;;;;;4.10;2.10;;;26.70;1.00;;;;;;6329406;28;20235;-55
2022/06/29 15:12:52;;;;;;;1.83;1.83;;;26.60;1.00;;;;;;6323420;28;20728;-55
2022/06/29 15:15:57;;;;;;;1.80;1.80;;;26.50;1.00;;;;;;6334773;27;20335;-55
2022/06/29 15:19:02;;;;;;;1.70;1.70;;;26.40;1.00;;;;;;6333013;27;20317;-55
2022/06/29 15:22:07;;;;;;;2.27;2.07;;;26.30;1.00;;;;;;6324513;28;20882;-56
2022/06/29 15:25:12;;;;;;;2.13;1.97;;;26.10;1.00;;;;;;6316248;28;20258;-55
2022/06/29 15:28:15;;;;;;;2.10;2.00;;;26.00;1.00;;;;;;6329136;27;20365;-57
2022/06/29 15:31:31;;;;;;;2.13;2.03;;;26.00;1.00;;;;;;6314179;28;20361;-56
2022/06/29 15:41:30;;;;;;;2.00;2.00;;;26.10;1.00;;;;;;6268457;28;20237;-55
2022/06/29 15:44:33;;;;;;;2.40;2.40;;;26.10;1.00;;;;;;6321792;28;20291;-54
2022/06/29 15:47:37;;;;;;;2.00;2.00;;;26.00;1.00;;;;;;6331301;27;20235;-55
2022/06/29 15:50:43;;;;;;;2.53;2.33;;;26.00;1.00;;;;;;6337507;27;20247;-55
2022/06/29 15:57:08;;;;;;;2.13;2.13;;;25.90;1.00;;;;;;6336039;27;20312;-56
2022/06/29 16:00:16;;;;;;;2.30;2.00;;;25.90;1.00;;;;;;6349933;27;20246;-55
2022/06/29 16:03:20;;;;;;;2.87;2.20;;;25.90;1.00;;;;;;6328047;27;20232;-54
2022/06/29 16:06:25;;;;;;;4.13;2.10;;;25.80;1.00;;;;;;6335313;27;20369;-54
2022/06/29 16:09:31;;;;;;;2.60;2.40;;;25.80;1.00;;;;;;6322128;28;20280;-57
2022/06/29 16:12:34;;;;;;;2.00;2.00;;;25.80;1.00;;;;;;6318235;28;20250;-56
2022/06/29 16:15:37;;;;;;;2.20;2.20;;;25.90;1.00;;;;;;6326147;27;20342;-55
2022/06/29 16:18:40;;;;;;;2.30;2.10;;;25.90;1.00;;;;;;6346439;27;20304;-55
2022/06/29 16:21:45;;;;;;;2.90;2.70;;;25.90;1.00;;;;;;6329584;27;20243;-56
2022/06/29 16:24:47;;;;;;;3.37;3.20;;;25.90;1.00;;;;;;6343232;27;20243;-54
2022/06/29 16:27:50;;;;;;;2.63;2.43;;;25.90;1.00;;;;;;6339645;27;20332;-55
2022/06/29 16:30:53;;;;;;;2.40;2.30;;;25.90;1.00;;;;;;6320534;28;20303;-57
2022/06/29 16:33:56;;;;;;;3.70;3.60;;;26.00;1.00;;;;;;6332603;28;20289;-55
2022/06/29 16:37:01;;;;;;;3.03;2.93;;;26.10;1.00;;;;;;6332028;27;20243;-54
2022/06/29 16:40:04;;;;;;;2.93;2.80;;;26.20;1.00;;;;;;6330497;28;20236;-55
2022/06/29 16:43:07;;;;;;;3.37;2.97;;;26.20;1.00;;;;;;6324665;28;20259;-55
2022/06/29 16:46:11;;;;;;;2.70;2.70;;;26.20;1.00;;;;;;6331017;27;20232;-53